NVY845 EGTF-EGTF

Flight info

Callsign NVY845
Flight time N/A
Altitude 9000
Route EGTF
Aircraft P46T/L-SBDGRWY/SB1

Departure

Time 2026-04-24 12:19
Airport Fairoaks Airport (EGTF)

Arrival

Time N/A
Airport Fairoaks Airport (EGTF)
Time Latitude Longitude Altitude Speed Heading
2026-04-24 12:06 51.35063 -0.56204 95 ft 0 kts 69°
2026-04-24 12:16 51.35057 -0.56166 95 ft 5 kts 148°
2026-04-24 12:16 51.35008 -0.56153 93 ft 9 kts 187°
2026-04-24 12:17 51.34941 -0.56196 87 ft 7 kts 205°
2026-04-24 12:17 51.34881 -0.56239 85 ft 11 kts 204°
2026-04-24 12:17 51.34826 -0.56280 80 ft 7 kts 206°
2026-04-24 12:17 51.34776 -0.56316 78 ft 9 kts 200°
2026-04-24 12:18 51.34727 -0.56333 85 ft 6 kts 189°
2026-04-24 12:18 51.34671 -0.56359 87 ft 9 kts 198°
2026-04-24 12:18 51.34618 -0.56349 86 ft 6 kts 100°
2026-04-24 12:18 51.34621 -0.56340 85 ft 3 kts 52°
2026-04-24 12:19 51.34735 -0.56048 77 ft 58 kts 58°
2026-04-24 12:19 51.35017 -0.55339 181 ft 85 kts 56°
2026-04-24 12:19 51.35391 -0.54455 426 ft 105 kts 54°
2026-04-24 12:19 51.35827 -0.53409 774 ft 117 kts 59°
2026-04-24 12:20 51.36068 -0.52226 1277 ft 115 kts 103°
2026-04-24 12:20 51.35524 -0.51184 1514 ft 141 kts 140°
2026-04-24 12:20 51.34530 -0.50429 1529 ft 174 kts 158°
2026-04-24 12:20 51.33281 -0.49900 1524 ft 195 kts 163°
2026-04-24 12:21 51.31956 -0.49406 1491 ft 195 kts 163°
2026-04-24 12:21 51.30621 -0.49317 1490 ft 196 kts 185°
2026-04-24 12:21 51.29279 -0.49734 1488 ft 197 kts 189°
2026-04-24 12:21 51.27939 -0.50246 1480 ft 198 kts 191°
2026-04-24 12:22 51.26603 -0.50760 1477 ft 197 kts 190°
2026-04-24 12:22 51.25292 -0.50681 1461 ft 187 kts 156°
2026-04-24 12:22 51.24362 -0.49371 1469 ft 179 kts 116°
2026-04-24 12:22 51.24083 -0.47469 1470 ft 176 kts 95°
2026-04-24 12:23 51.24020 -0.45536 1475 ft 174 kts 89°
2026-04-24 12:23 51.24028 -0.43689 1762 ft 161 kts 89°
2026-04-24 12:23 51.24047 -0.41875 1769 ft 165 kts 89°
2026-04-24 12:23 51.24066 -0.40023 1775 ft 169 kts 89°
2026-04-24 12:24 51.24085 -0.38127 1773 ft 170 kts 89°
2026-04-24 12:24 51.24108 -0.36270 1780 ft 170 kts 88°
2026-04-24 12:24 51.24207 -0.34364 1780 ft 171 kts 83°
2026-04-24 12:24 51.24449 -0.32494 1779 ft 177 kts 78°
2026-04-24 12:25 51.24731 -0.30563 1781 ft 180 kts 78°
2026-04-24 12:25 51.25018 -0.28631 1780 ft 179 kts 78°
2026-04-24 12:25 51.25309 -0.26705 1779 ft 178 kts 77°
2026-04-24 12:25 51.25599 -0.24775 1775 ft 180 kts 78°
2026-04-24 12:26 51.25898 -0.22849 1769 ft 176 kts 78°
2026-04-24 12:26 51.26175 -0.20963 1771 ft 173 kts 78°
2026-04-24 12:26 51.26455 -0.19109 1769 ft 170 kts 78°
2026-04-24 12:26 51.26731 -0.17273 1767 ft 170 kts 78°
2026-04-24 12:27 51.27002 -0.15435 1772 ft 171 kts 78°
2026-04-24 12:27 51.27271 -0.13565 1768 ft 172 kts 78°
2026-04-24 12:27 51.27550 -0.11701 1781 ft 174 kts 78°
2026-04-24 12:27 51.27824 -0.09846 1779 ft 174 kts 78°
2026-04-24 12:28 51.28096 -0.07964 1783 ft 174 kts 78°
2026-04-24 12:28 51.28364 -0.06079 1775 ft 174 kts 77°
2026-04-24 12:28 51.28636 -0.04193 1778 ft 175 kts 78°
2026-04-24 12:28 51.28898 -0.02309 1778 ft 174 kts 78°
2026-04-24 12:29 51.29175 -0.00404 1786 ft 177 kts 78°
2026-04-24 12:29 51.29456 0.01524 1770 ft 179 kts 78°
2026-04-24 12:29 51.29741 0.03458 1768 ft 178 kts 78°
2026-04-24 12:29 51.30021 0.05352 1776 ft 173 kts 78°
2026-04-24 12:30 51.30298 0.07239 1774 ft 175 kts 78°
2026-04-24 12:30 51.30586 0.09132 1776 ft 175 kts 78°
2026-04-24 12:30 51.30872 0.11020 1778 ft 174 kts 78°
2026-04-24 12:30 51.30974 0.12913 1780 ft 174 kts 90°
2026-04-24 12:31 51.30952 0.14832 1776 ft 171 kts 91°
2026-04-24 12:31 51.30930 0.16744 1786 ft 173 kts 91°
2026-04-24 12:31 51.30905 0.18689 1780 ft 176 kts 90°
2026-04-24 12:31 51.30872 0.20652 1778 ft 176 kts 91°
2026-04-24 12:32 51.30826 0.22586 1777 ft 172 kts 92°
2026-04-24 12:32 51.30804 0.24479 1782 ft 171 kts 91°
2026-04-24 12:32 51.30784 0.26414 1778 ft 176 kts 90°
2026-04-24 12:32 51.30749 0.28380 1778 ft 177 kts 92°
2026-04-24 12:33 51.30720 0.30353 1782 ft 178 kts 91°
2026-04-24 12:33 51.30703 0.32278 1775 ft 173 kts 91°
2026-04-24 12:33 51.30696 0.34189 1772 ft 171 kts 91°
2026-04-24 12:33 51.30677 0.36072 1770 ft 168 kts 91°
2026-04-24 12:34 51.30661 0.37945 1769 ft 169 kts 91°
2026-04-24 12:34 51.30657 0.39840 1780 ft 172 kts 91°
2026-04-24 12:34 51.30645 0.41766 1778 ft 175 kts 91°
2026-04-24 12:34 51.30617 0.43714 1778 ft 174 kts 91°
2026-04-24 12:35 51.30593 0.45653 1779 ft 174 kts 91°
2026-04-24 12:35 51.30578 0.47580 1776 ft 174 kts 91°
2026-04-24 12:35 51.30561 0.49502 1771 ft 172 kts 91°
2026-04-24 12:35 51.30535 0.51413 1769 ft 171 kts 91°
2026-04-24 12:36 51.30512 0.53278 1775 ft 170 kts 91°
2026-04-24 12:36 51.30480 0.55173 1779 ft 171 kts 90°
2026-04-24 12:36 51.30527 0.57031 1770 ft 166 kts 83°
2026-04-24 12:36 51.30763 0.58817 1772 ft 161 kts 78°
2026-04-24 12:37 51.30991 0.60536 1785 ft 157 kts 79°
2026-04-24 12:37 51.31211 0.62252 1774 ft 158 kts 78°
2026-04-24 12:37 51.31434 0.63962 1770 ft 155 kts 74°
2026-04-24 12:37 51.31864 0.65521 1778 ft 152 kts 63°
2026-04-24 12:38 51.32406 0.66993 1773 ft 155 kts 54°
2026-04-24 12:38 51.33151 0.68246 1797 ft 157 kts 48°
2026-04-24 12:38 51.33913 0.69466 1787 ft 157 kts 48°